Time;durP1;ratioP1;P1;durP2;ratioP2;P2;SDS_P1;SDS_P2;PMS_P1;PMS_P2;Temp;Humidity;BMP_temperature;BMP_pressure;BME280_temperature;BME280_humidity;BME280_pressure;Samples;Min_cycle;Max_cycle;Signal;HPM_P1;HPM_P2
2021/12/06 00:01:35;;;;;;;54.00;35.07;;;;;;;9.86;92.38;98769.22;5072572;28;20196;-65
2021/12/06 00:04:08;;;;;;;53.53;32.73;;;;;;;9.77;93.44;98770.50;5073354;28;20246;-65
2021/12/06 00:06:38;;;;;;;53.93;32.50;;;;;;;9.83;93.40;98780.25;5073359;28;20271;-64
2021/12/06 00:09:07;;;;;;;51.70;32.83;;;;;;;9.85;93.37;98788.81;5072992;28;20191;-65
2021/12/06 00:11:34;;;;;;;51.07;31.43;;;;;;;9.89;92.89;98805.97;5072631;28;20220;-65
2021/12/06 00:14:02;;;;;;;53.43;31.50;;;;;;;9.93;93.67;98792.06;5072654;28;20227;-65
2021/12/06 00:16:29;;;;;;;52.00;32.27;;;;;;;9.97;92.79;98781.84;5072602;28;20545;-65
2021/12/06 00:18:56;;;;;;;57.47;32.30;;;;;;;9.95;92.97;98779.41;5072595;28;20269;-65
2021/12/06 00:21:25;;;;;;;49.97;30.63;;;;;;;9.99;93.07;98795.72;5072554;28;20196;-65
2021/12/06 00:23:52;;;;;;;52.47;30.93;;;;;;;9.98;92.78;98794.09;5072224;28;20191;-65
2021/12/06 00:26:19;;;;;;;55.43;32.37;;;;;;;9.99;93.25;98790.41;5072167;28;20747;-65
2021/12/06 00:28:47;;;;;;;50.37;31.07;;;;;;;10.04;93.12;98803.84;5072180;28;20732;-65
2021/12/06 00:31:15;;;;;;;51.23;30.57;;;;;;;10.07;93.05;98808.78;5072007;28;20223;-65
2021/12/06 00:33:43;;;;;;;46.27;30.33;;;;;;;10.08;91.96;98811.22;5072054;28;20242;-65
2021/12/06 00:36:16;;;;;;;55.37;31.77;;;;;;;10.10;92.37;98809.16;5072036;28;20188;-65
2021/12/06 00:38:45;;;;;;;50.90;30.17;;;;;;;9.98;92.61;98796.75;5072681;28;20194;-65
2021/12/06 00:41:13;;;;;;;54.17;31.07;;;;;;;10.00;92.77;98781.41;5072304;28;20230;-65
2021/12/06 00:43:39;;;;;;;51.27;31.27;;;;;;;10.04;92.32;98782.63;5071870;28;20728;-65
2021/12/06 00:46:06;;;;;;;52.63;30.47;;;;;;;10.06;93.11;98794.69;5072660;28;20231;-65
2021/12/06 00:48:34;;;;;;;51.73;30.73;;;;;;;10.03;92.44;98787.13;5072260;28;20199;-64
2021/12/06 00:51:01;;;;;;;58.77;31.60;;;;;;;10.05;92.70;98790.41;5072149;28;20277;-65
2021/12/06 00:53:28;;;;;;;52.47;31.23;;;;;;;10.05;92.50;98784.31;5072214;28;20195;-65
2021/12/06 00:55:56;;;;;;;53.40;31.47;;;;;;;10.08;92.76;98779.38;5072110;28;20249;-65
2021/12/06 00:58:23;;;;;;;54.57;31.53;;;;;;;10.08;92.64;98783.88;5072439;28;20191;-65
2021/12/06 01:00:53;;;;;;;54.50;31.23;;;;;;;10.09;92.75;98780.22;5071803;28;20195;-65
2021/12/06 01:03:24;;;;;;;60.13;31.77;;;;;;;9.90;93.01;98783.72;5071786;28;20188;-65
2021/12/06 01:05:51;;;;;;;59.07;31.73;;;;;;;9.78;93.74;98764.97;5072654;28;20554;-64
2021/12/06 01:08:18;;;;;;;60.00;32.83;;;;;;;9.77;94.38;98759.88;5072060;28;20565;-65
2021/12/06 01:10:45;;;;;;;65.63;31.83;;;;;;;9.81;94.06;98750.47;5071680;28;20253;-65
2021/12/06 01:13:14;;;;;;;60.07;33.47;;;;;;;9.85;94.03;98743.75;5071709;28;20655;-65
2021/12/06 01:15:42;;;;;;;58.30;32.10;;;;;;;9.88;94.56;98751.25;5071652;28;20195;-66
2021/12/06 01:18:12;;;;;;;52.50;30.90;;;;;;;9.92;93.68;98752.47;5071964;28;20261;-66
2021/12/06 01:20:49;;;;;;;56.43;32.07;;;;;;;9.87;93.85;98750.47;5071610;28;20196;-66
2021/12/06 01:23:19;;;;;;;55.00;30.47;;;;;;;9.82;94.38;98754.75;5072528;28;20195;-66
2021/12/06 01:25:54;;;;;;;57.57;30.97;;;;;;;9.72;95.05;98749.09;5072132;28;20203;-65
2021/12/06 01:28:57;;;;;;;51.23;31.47;;;;;;;9.79;95.52;98752.53;5071618;28;20200;-65
2021/12/06 01:31:35;;;;;;;50.93;30.20;;;;;;;9.81;95.50;98748.63;5071320;28;20220;-65
2021/12/06 01:39:36;;;;;;;50.43;31.80;;;;;;;9.87;94.25;98755.75;5071845;28;20195;-65
2021/12/06 01:42:06;;;;;;;57.67;31.13;;;;;;;9.77;95.03;98736.81;5071729;28;20196;-65
2021/12/06 01:44:36;;;;;;;57.07;32.00;;;;;;;9.82;95.06;98726.41;5072016;28;20293;-65
2021/12/06 01:47:08;;;;;;;53.67;31.20;;;;;;;9.84;95.43;98719.03;5071701;28;20242;-65
2021/12/06 01:49:37;;;;;;;60.37;32.33;;;;;;;9.94;95.11;98729.22;5074404;28;20230;-65
2021/12/06 01:52:07;;;;;;;56.93;31.30;;;;;;;9.98;94.48;98733.06;5074998;28;20769;-65
2021/12/06 01:54:33;;;;;;;53.60;30.77;;;;;;;10.00;94.10;98723.06;5074975;28;20651;-65
2021/12/06 01:57:00;;;;;;;54.17;31.67;;;;;;;9.98;94.39;98719.81;5075241;28;20562;-65
2021/12/06 01:59:27;;;;;;;59.70;32.57;;;;;;;10.01;94.12;98728.16;5075487;28;20257;-65
2021/12/06 02:01:56;;;;;;;55.83;31.27;;;;;;;9.94;94.03;98729.22;5075108;28;20203;-65
2021/12/06 02:04:23;;;;;;;57.50;31.57;;;;;;;9.91;94.26;98727.81;5075410;28;20188;-65
2021/12/06 02:06:50;;;;;;;60.23;32.37;;;;;;;9.94;94.43;98724.75;5074749;28;20203;-65
2021/12/06 02:09:21;;;;;;;60.43;33.80;;;;;;;9.94;94.24;98718.59;5074756;28;20196;-65
2021/12/06 02:11:48;;;;;;;66.23;33.30;;;;;;;9.98;94.08;98725.13;5074686;28;20258;-65
2021/12/06 02:14:27;;;;;;;67.10;34.27;;;;;;;9.81;94.17;98719.47;5074952;28;20203;-65
2021/12/06 02:17:05;;;;;;;62.63;33.53;;;;;;;9.78;95.44;98719.06;5074665;28;20188;-65
2021/12/06 02:19:35;;;;;;;64.53;32.83;;;;;;;9.82;95.19;98722.94;5075174;28;20183;-65
2021/12/06 02:22:05;;;;;;;59.93;32.30;;;;;;;9.85;95.44;98719.88;5075065;28;20188;-65
2021/12/06 02:24:34;;;;;;;65.77;33.23;;;;;;;9.86;95.34;98694.97;5074445;28;20286;-65
2021/12/06 02:27:02;;;;;;;65.90;32.17;;;;;;;9.89;95.14;98697.22;5075243;28;20229;-65
2021/12/06 02:29:29;;;;;;;68.80;34.10;;;;;;;9.93;94.65;98722.28;5074970;28;20192;-65
2021/12/06 02:31:56;;;;;;;72.73;33.47;;;;;;;9.96;94.79;98727.16;5074979;28;20602;-65
2021/12/06 02:34:22;;;;;;;69.93;33.03;;;;;;;10.01;94.69;98724.69;5074275;28;20192;-66
2021/12/06 02:36:49;;;;;;;67.20;33.03;;;;;;;10.01;94.70;98706.13;5074797;28;20246;-66
2021/12/06 02:39:22;;;;;;;72.63;34.50;;;;;;;9.92;94.65;98688.81;5074182;28;20318;-66
2021/12/06 02:41:51;;;;;;;66.47;32.50;;;;;;;9.85;94.13;98688.84;5075265;28;20192;-65
2021/12/06 02:44:18;;;;;;;73.87;33.00;;;;;;;9.88;94.65;98706.16;5074186;28;20238;-65
2021/12/06 02:46:45;;;;;;;77.53;31.83;;;;;;;9.93;95.56;98714.34;5074031;28;20257;-65
2021/12/06 02:49:13;;;;;;;75.77;32.43;;;;;;;9.93;94.41;98703.72;5074325;28;20188;-65
2021/12/06 02:51:40;;;;;;;70.80;32.23;;;;;;;9.91;94.55;98703.09;5073861;28;20276;-66
2021/12/06 02:54:06;;;;;;;79.77;32.93;;;;;;;9.95;95.14;98706.97;5073921;28;20188;-66
2021/12/06 02:56:50;;;;;;;68.67;31.60;;;;;;;9.94;95.16;98715.94;5074404;28;20249;-66
2021/12/06 02:59:17;;;;;;;68.27;31.00;;;;;;;9.85;94.60;98703.97;5073623;28;20229;-66
2021/12/06 03:01:46;;;;;;;78.77;31.90;;;;;;;9.92;95.19;98694.13;5074308;28;20278;-66
2021/12/06 03:04:13;;;;;;;73.93;32.10;;;;;;;9.95;94.28;98686.56;5074299;28;20191;-65
2021/12/06 03:06:41;;;;;;;67.73;29.83;;;;;;;9.79;94.75;98687.03;5073963;28;20245;-65
2021/12/06 03:09:12;;;;;;;63.60;30.10;;;;;;;9.77;95.09;98706.84;5074156;28;20193;-65
2021/12/06 03:11:42;;;;;;;75.77;31.73;;;;;;;9.78;95.41;98709.28;5074391;28;20208;-65
2021/12/06 03:14:12;;;;;;;73.60;30.40;;;;;;;9.75;94.94;98711.53;5074153;28;20188;-66
2021/12/06 03:16:39;;;;;;;68.50;31.03;;;;;;;9.64;95.47;98718.28;5073442;28;20199;-66
2021/12/06 03:19:06;;;;;;;74.03;30.67;;;;;;;9.69;95.52;98720.34;5073345;28;20245;-65
2021/12/06 03:21:33;;;;;;;71.60;31.93;;;;;;;9.76;95.98;98727.25;5074479;28;20196;-65
2021/12/06 03:24:00;;;;;;;77.53;31.60;;;;;;;9.78;95.77;98725.19;5074161;28;20250;-66
2021/12/06 03:26:29;;;;;;;67.07;31.60;;;;;;;9.82;95.92;98704.38;5073535;28;20192;-66
2021/12/06 03:28:57;;;;;;;72.07;31.33;;;;;;;9.88;95.57;98703.50;5073790;28;20200;-66
2021/12/06 03:31:25;;;;;;;76.60;33.40;;;;;;;9.89;95.27;98694.56;5073911;28;20223;-66
2021/12/06 03:33:55;;;;;;;69.47;31.33;;;;;;;9.89;94.81;98690.03;5073109;28;20250;-66
2021/12/06 03:36:25;;;;;;;71.27;30.77;;;;;;;9.84;94.42;98697.00;5074258;28;20242;-65
2021/12/06 03:38:53;;;;;;;73.17;31.00;;;;;;;9.83;94.65;98703.34;5072988;28;20214;-66
2021/12/06 03:41:21;;;;;;;59.77;27.63;;;;;;;9.73;94.80;98695.81;5072996;28;20192;-65
2021/12/06 03:43:48;;;;;;;61.03;28.87;;;;;;;9.64;94.82;98677.72;5072798;28;20654;-65
2021/12/06 03:46:19;;;;;;;53.43;27.60;;;;;;;9.64;94.40;98704.25;5073719;28;20245;-66
2021/12/06 03:48:46;;;;;;;56.53;29.27;;;;;;;9.58;95.52;98718.31;5073720;28;20615;-66
2021/12/06 03:51:13;;;;;;;59.40;30.40;;;;;;;9.49;95.13;98724.88;5073641;28;20188;-66
2021/12/06 03:53:40;;;;;;;54.40;27.77;;;;;;;9.48;95.56;98723.25;5072641;28;20666;-66
2021/12/06 03:56:07;;;;;;;50.90;26.43;;;;;;;9.53;95.97;98720.78;5073014;28;20191;-65
2021/12/06 03:58:35;;;;;;;60.20;28.10;;;;;;;9.55;94.44;98702.81;5072927;28;20195;-65
2021/12/06 04:01:03;;;;;;;58.47;28.77;;;;;;;9.60;95.21;98693.22;5072569;28;20226;-66
2021/12/06 04:03:34;;;;;;;58.13;27.57;;;;;;;9.62;94.07;98704.44;5072876;28;20206;-65
2021/12/06 04:06:02;;;;;;;61.00;28.57;;;;;;;9.60;94.50;98714.44;5073707;28;20188;-65
2021/12/06 04:08:29;;;;;;;44.40;24.17;;;;;;;9.60;94.87;98711.00;5072472;28;20651;-65
2021/12/06 04:10:56;;;;;;;36.97;21.97;;;;;;;9.40;93.29;98710.22;5072122;28;20196;-66
2021/12/06 04:13:23;;;;;;;31.43;21.00;;;;;;;9.35;93.37;98720.63;5072618;28;20223;-66
2021/12/06 04:15:51;;;;;;;44.63;23.40;;;;;;;9.28;92.02;98711.88;5073128;28;20253;-66
2021/12/06 04:18:18;;;;;;;38.57;22.93;;;;;;;9.15;92.67;98703.94;5072890;28;20200;-65
2021/12/06 04:20:46;;;;;;;35.60;22.43;;;;;;;9.18;93.27;98701.69;5072620;28;20196;-65
2021/12/06 04:23:14;;;;;;;41.63;23.33;;;;;;;9.19;91.94;98697.22;5073401;28;20195;-65
2021/12/06 04:25:43;;;;;;;36.87;21.57;;;;;;;9.17;92.99;98686.00;5072183;28;20192;-65
2021/12/06 04:28:14;;;;;;;33.50;21.43;;;;;;;9.13;92.41;98692.72;5072447;28;20191;-65
2021/12/06 04:30:41;;;;;;;36.03;22.73;;;;;;;9.16;92.87;98692.31;5073564;28;20188;-64
2021/12/06 04:33:09;;;;;;;33.60;20.73;;;;;;;9.19;91.99;98692.72;5072027;28;20251;-64
2021/12/06 04:35:37;;;;;;;35.10;21.10;;;;;;;9.12;91.84;98691.94;5072026;28;20196;-64
2021/12/06 04:38:07;;;;;;;38.60;21.70;;;;;;;9.15;93.02;98690.72;5072239;28;20191;-65
2021/12/06 04:40:33;;;;;;;38.03;22.77;;;;;;;9.08;91.57;98701.31;5072277;28;20192;-65
2021/12/06 04:43:00;;;;;;;38.40;22.67;;;;;;;9.02;92.18;98701.28;5072789;28;20257;-64
2021/12/06 04:45:27;;;;;;;39.93;23.40;;;;;;;8.95;93.14;98700.50;5072375;28;20227;-64
2021/12/06 04:47:54;;;;;;;37.47;22.97;;;;;;;8.95;93.98;98705.81;5072201;28;20195;-65
2021/12/06 04:50:25;;;;;;;37.90;23.50;;;;;;;9.03;93.25;98713.53;5072665;28;20188;-65
2021/12/06 04:52:53;;;;;;;42.57;23.93;;;;;;;9.05;93.47;98707.03;5072195;28;20579;-65
2021/12/06 04:55:26;;;;;;;46.27;25.27;;;;;;;9.14;92.80;98710.25;5071869;28;20254;-65
2021/12/06 04:57:53;;;;;;;52.23;26.83;;;;;;;9.21;92.32;98697.81;5071823;28;20640;-65
2021/12/06 05:00:26;;;;;;;53.87;28.07;;;;;;;9.27;93.12;98704.94;5072093;28;20228;-64
2021/12/06 05:02:52;;;;;;;44.30;25.90;;;;;;;9.28;92.55;98694.13;5072934;28;20191;-65
2021/12/06 05:05:24;;;;;;;50.37;26.27;;;;;;;9.21;92.47;98698.63;5071687;28;20655;-65
2021/12/06 05:07:54;;;;;;;56.53;28.03;;;;;;;9.25;92.47;98707.81;5071622;28;20188;-64
2021/12/06 05:10:22;;;;;;;45.57;27.33;;;;;;;9.16;92.42;98687.84;5071701;28;20188;-64
2021/12/06 05:12:50;;;;;;;50.30;28.47;;;;;;;9.19;93.60;98702.53;5071739;28;20265;-65
2021/12/06 05:15:18;;;;;;;52.63;31.13;;;;;;;9.15;93.08;98690.72;5071894;28;20188;-64
2021/12/06 05:17:44;;;;;;;61.83;30.80;;;;;;;9.15;93.68;98696.81;5071455;28;20675;-64
2021/12/06 05:20:13;;;;;;;60.43;30.40;;;;;;;9.11;93.92;98710.69;5071718;28;20188;-64
2021/12/06 05:22:41;;;;;;;56.67;30.77;;;;;;;9.10;93.96;98709.03;5071376;28;20192;-65
2021/12/06 05:25:09;;;;;;;54.80;30.83;;;;;;;9.09;94.24;98707.41;5075473;28;20196;-65
2021/12/06 05:27:38;;;;;;;58.27;29.03;;;;;;;9.06;94.64;98718.41;5075347;28;20682;-65
2021/12/06 05:30:09;;;;;;;59.27;28.53;;;;;;;8.97;94.31;98715.16;5073476;28;20202;-65
2021/12/06 05:32:36;;;;;;;53.80;29.07;;;;;;;8.87;95.29;98711.31;5073315;28;20223;-65
2021/12/06 05:35:07;;;;;;;49.13;27.93;;;;;;;8.94;95.80;98710.28;5073083;28;20329;-65
2021/12/06 05:37:37;;;;;;;62.07;31.43;;;;;;;8.95;95.25;98706.59;5073394;28;20188;-64
2021/12/06 05:40:06;;;;;;;51.13;30.77;;;;;;;9.01;95.26;98720.88;5072962;28;20869;-65
2021/12/06 05:42:33;;;;;;;87.20;34.33;;;;;;;9.00;95.02;98740.44;5073229;28;20269;-65
2021/12/06 05:45:01;;;;;;;55.13;32.60;;;;;;;8.99;95.91;98744.09;5074555;28;20710;-64
2021/12/06 05:47:28;;;;;;;68.77;33.30;;;;;;;8.96;95.13;98739.22;5075484;28;20241;-64
2021/12/06 05:49:55;;;;;;;75.30;33.30;;;;;;;8.93;95.97;98723.72;5074957;28;20659;-65
2021/12/06 05:52:21;;;;;;;68.17;34.37;;;;;;;8.88;95.61;98720.88;5075142;28;20727;-65
2021/12/06 05:54:48;;;;;;;68.30;33.73;;;;;;;8.90;96.38;98718.84;5075531;28;20192;-65
2021/12/06 05:57:16;;;;;;;76.00;36.13;;;;;;;8.94;96.33;98725.38;5075890;28;20196;-65
2021/12/06 05:59:43;;;;;;;69.07;33.20;;;;;;;8.97;96.66;98728.41;5074924;28;20259;-65
2021/12/06 06:02:12;;;;;;;67.67;34.00;;;;;;;8.92;96.12;98722.91;5074792;28;20196;-65
2021/12/06 06:04:39;;;;;;;69.13;32.80;;;;;;;8.95;96.89;98727.78;5074666;28;20188;-65
2021/12/06 06:07:06;;;;;;;75.80;33.67;;;;;;;9.06;96.82;98719.22;5074072;28;20191;-64
2021/12/06 06:09:34;;;;;;;66.13;35.33;;;;;;;9.12;95.39;98712.31;5074878;28;20191;-67
2021/12/06 06:12:03;;;;;;;66.50;32.87;;;;;;;9.19;95.75;98726.38;5074895;28;20192;-68
2021/12/06 06:14:30;;;;;;;62.83;31.37;;;;;;;9.21;95.31;98729.59;5074718;28;20258;-69
2021/12/06 06:17:03;;;;;;;66.87;31.53;;;;;;;9.22;95.00;98723.28;5074702;28;20195;-69
2021/12/06 06:19:31;;;;;;;59.33;29.47;;;;;;;9.24;95.22;98731.84;5073299;28;20249;-70
2021/12/06 06:21:58;;;;;;;65.97;29.30;;;;;;;9.26;94.55;98735.94;5065924;28;20189;-71
2021/12/06 06:24:25;;;;;;;62.03;28.53;;;;;;;9.32;95.07;98747.53;5060846;28;20250;-73
2021/12/06 06:26:51;;;;;;;63.30;28.73;;;;;;;9.45;94.24;98756.28;5074372;28;20672;-72
2021/12/06 06:29:18;;;;;;;49.77;26.67;;;;;;;9.54;93.92;98748.91;5071234;28;20675;-68
2021/12/06 06:31:45;;;;;;;58.50;28.43;;;;;;;9.63;93.15;98758.28;5062565;28;20290;-69
2021/12/06 06:34:12;;;;;;;71.47;30.67;;;;;;;9.70;92.54;98748.47;5055075;28;20247;-69
2021/12/06 06:36:41;;;;;;;68.33;32.23;;;;;;;9.77;92.15;98757.22;5063304;28;20645;-68
2021/12/06 06:39:11;;;;;;;81.50;33.57;;;;;;;9.79;92.45;98745.38;5068370;28;20193;-69
2021/12/06 06:41:40;;;;;;;69.57;32.60;;;;;;;9.75;92.08;98746.81;5073080;28;20196;-69
2021/12/06 06:44:08;;;;;;;78.23;32.27;;;;;;;9.76;92.46;98743.16;5060089;28;20585;-69
2021/12/06 06:46:37;;;;;;;57.13;29.57;;;;;;;9.81;92.46;98747.84;5053895;28;20192;-68
2021/12/06 06:49:06;;;;;;;61.87;31.73;;;;;;;9.70;91.38;98716.66;5072704;28;20242;-70
2021/12/06 06:51:33;;;;;;;55.60;30.70;;;;;;;9.82;92.41;98728.25;5073989;28;20193;-71
2021/12/06 06:54:01;;;;;;;60.77;29.03;;;;;;;9.79;91.43;98733.94;5073800;28;20216;-69
2021/12/06 06:56:28;;;;;;;57.23;28.47;;;;;;;9.80;91.23;98744.34;5063843;28;20242;-70
2021/12/06 06:58:56;;;;;;;49.93;28.40;;;;;;;9.89;90.56;98742.31;5053531;28;20197;-71
2021/12/06 07:01:23;;;;;;;85.70;29.77;;;;;;;9.82;90.49;98725.59;5053434;28;20330;-70
2021/12/06 07:03:53;;;;;;;68.87;28.13;;;;;;;9.83;90.10;98722.72;5053210;28;20254;-69
2021/12/06 07:06:20;;;;;;;51.90;25.20;;;;;;;9.88;90.46;98724.72;5059687;28;20191;-71
2021/12/06 07:08:47;;;;;;;41.10;21.47;;;;;;;9.91;89.35;98724.31;5073622;28;20273;-70
2021/12/06 07:11:15;;;;;;;45.00;23.23;;;;;;;9.87;88.77;98728.41;5073295;28;20199;-69
2021/12/06 07:13:43;;;;;;;43.83;23.00;;;;;;;9.97;89.61;98718.19;5072942;28;20215;-69
2021/12/06 07:16:11;;;;;;;42.63;22.30;;;;;;;9.85;89.15;98719.88;5073159;28;20199;-71
2021/12/06 07:18:38;;;;;;;45.07;21.50;;;;;;;9.79;89.54;98721.53;5072472;28;20200;-72
2021/12/06 07:21:05;;;;;;;45.13;22.47;;;;;;;9.89;89.56;98721.09;5072523;28;20206;-71
2021/12/06 07:23:38;;;;;;;41.13;21.27;;;;;;;9.88;89.13;98714.13;5073315;28;20257;-74
2021/12/06 07:26:05;;;;;;;50.07;22.87;;;;;;;9.92;90.23;98720.63;5073411;28;20262;-75
2021/12/06 07:28:33;;;;;;;43.53;22.97;;;;;;;9.84;89.87;98721.69;5065698;28;20208;-72
2021/12/06 07:31:01;;;;;;;39.57;20.30;;;;;;;9.96;90.25;98721.84;5053380;28;20253;-73
2021/12/06 07:33:28;;;;;;;45.97;20.70;;;;;;;10.02;89.56;98721.03;5053077;28;20239;-73
2021/12/06 07:35:55;;;;;;;55.27;23.97;;;;;;;10.03;89.59;98733.25;5053198;28;20200;-71
2021/12/06 07:38:21;;;;;;;61.23;25.97;;;;;;;10.10;90.28;98723.47;5052989;28;20227;-73
2021/12/06 07:40:50;;;;;;;68.53;24.83;;;;;;;10.34;93.85;98712.91;5063251;28;20192;-69
2021/12/06 07:43:17;;;;;;;56.97;27.07;;;;;;;10.46;89.58;98723.69;5073622;28;20204;-69
2021/12/06 07:45:46;;;;;;;56.20;26.30;;;;;;;10.52;89.29;98730.78;5072340;28;20219;-74
2021/12/06 07:48:13;;;;;;;66.33;28.17;;;;;;;10.58;88.96;98714.78;5072987;28;20197;-72
2021/12/06 07:50:40;;;;;;;71.20;30.70;;;;;;;10.76;89.17;98724.69;5072634;28;20198;-69
2021/12/06 07:53:07;;;;;;;66.90;29.40;;;;;;;10.82;88.18;98714.00;5072503;28;20282;-71
2021/12/06 07:55:35;;;;;;;77.70;32.83;;;;;;;10.91;87.79;98725.19;5073000;28;20283;-70
2021/12/06 07:58:03;;;;;;;67.97;29.93;;;;;;;11.04;87.70;98722.41;5072677;28;20193;-73
2021/12/06 08:00:31;;;;;;;74.00;32.30;;;;;;;11.10;85.55;98694.97;5072777;28;20247;-73
2021/12/06 08:03:00;;;;;;;72.73;34.97;;;;;;;11.13;86.45;98694.53;5072513;28;20205;-68
2021/12/06 08:05:32;;;;;;;80.90;37.83;;;;;;;11.25;86.09;98708.72;5072411;28;20664;-69
2021/12/06 08:07:59;;;;;;;76.63;33.37;;;;;;;11.36;86.02;98713.34;5072151;28;20670;-74
2021/12/06 08:10:26;;;;;;;74.43;32.27;;;;;;;11.44;84.92;98705.06;5072767;28;20198;-70
2021/12/06 08:12:53;;;;;;;68.10;30.63;;;;;;;11.53;85.54;98717.03;5072365;28;20201;-69
2021/12/06 08:15:20;;;;;;;64.03;30.87;;;;;;;11.54;84.34;98723.16;5072551;28;20193;-73
2021/12/06 08:17:46;;;;;;;69.77;32.33;;;;;;;11.47;84.56;98723.22;5072042;28;20626;-73
2021/12/06 08:20:14;;;;;;;73.67;32.53;;;;;;;11.51;85.16;98708.44;5072428;28;20194;-76
2021/12/06 08:22:41;;;;;;;66.93;31.07;;;;;;;11.44;84.88;98699.75;5072084;28;20198;-74
2021/12/06 08:25:10;;;;;;;75.77;31.30;;;;;;;11.41;84.98;98718.78;5072030;28;20204;-70
2021/12/06 08:27:37;;;;;;;64.90;29.63;;;;;;;11.36;84.24;98700.03;5072214;28;20250;-75
2021/12/06 08:30:08;;;;;;;67.90;29.87;;;;;;;11.39;85.59;98710.22;5052323;28;20193;-70
2021/12/06 08:32:35;;;;;;;61.43;31.50;;;;;;;11.43;84.75;98714.06;5052997;28;20244;-71
2021/12/06 08:35:01;;;;;;;64.13;28.60;;;;;;;11.36;84.81;98705.34;5052195;28;20226;-70
2021/12/06 08:37:30;;;;;;;68.83;30.80;;;;;;;11.41;85.33;98707.34;5052181;28;20198;-70
2021/12/06 08:39:56;;;;;;;73.00;31.87;;;;;;;11.17;85.42;98695.72;5055432;28;20268;-71
2021/12/06 08:42:24;;;;;;;64.20;31.07;;;;;;;11.21;86.26;98710.19;5071483;28;20657;-72
2021/12/06 08:44:51;;;;;;;60.57;30.53;;;;;;;11.23;86.45;98705.47;5071910;28;20280;-71
2021/12/06 08:47:18;;;;;;;66.57;33.23;;;;;;;11.34;86.83;98693.28;5072249;28;20193;-70
2021/12/06 08:49:45;;;;;;;71.17;33.23;;;;;;;11.38;85.81;98707.78;5072352;28;20189;-73
2021/12/06 08:52:14;;;;;;;65.17;30.63;;;;;;;11.32;85.10;98703.34;5071697;28;20243;-71
2021/12/06 08:54:43;;;;;;;70.73;31.57;;;;;;;11.27;85.84;98701.34;5072255;28;20231;-70
2021/12/06 08:57:10;;;;;;;77.10;31.80;;;;;;;11.14;86.64;98708.66;5071354;28;20555;-69
2021/12/06 08:59:37;;;;;;;81.73;32.30;;;;;;;11.23;86.82;98707.31;5071664;28;20201;-75
2021/12/06 09:02:04;;;;;;;73.20;33.10;;;;;;;11.17;86.65;98705.53;5072427;28;20194;-77
2021/12/06 09:04:37;;;;;;;94.23;36.90;;;;;;;11.18;86.61;98692.03;5071757;28;20570;-77
2021/12/06 09:07:10;;;;;;;101.00;39.47;;;;;;;11.13;86.56;98683.06;5072666;28;20227;-77
2021/12/06 09:09:37;;;;;;;84.27;33.40;;;;;;;11.12;87.17;98671.66;5071715;28;20656;-78
2021/12/06 09:12:06;;;;;;;85.70;35.47;;;;;;;11.21;87.00;98659.69;5071868;28;20196;-78
2021/12/06 09:14:33;;;;;;;80.33;35.87;;;;;;;11.31;86.68;98665.31;5071215;28;20696;-72
2021/12/06 09:17:00;;;;;;;71.63;32.90;;;;;;;11.27;86.46;98688.03;5072023;28;20193;-75
2021/12/06 09:19:26;;;;;;;79.03;32.47;;;;;;;11.25;86.50;98674.16;5071216;28;20536;-73
2021/12/06 09:21:53;;;;;;;81.17;34.10;;;;;;;11.34;87.22;98683.47;5071548;28;20242;-75
2021/12/06 09:24:21;;;;;;;80.63;34.63;;;;;;;11.25;86.65;98676.84;5071800;28;20201;-76
2021/12/06 09:26:49;;;;;;;75.70;32.70;;;;;;;11.14;87.11;98680.19;5071527;28;20654;-74
2021/12/06 09:29:18;;;;;;;74.57;32.40;;;;;;;11.01;87.81;98664.38;5058054;28;20209;-75
2021/12/06 09:31:46;;;;;;;86.10;35.10;;;;;;;11.14;88.46;98658.16;5051091;28;20191;-73
2021/12/06 09:34:13;;;;;;;95.50;35.03;;;;;;;11.14;88.00;98658.94;5050759;28;20220;-74
2021/12/06 09:36:40;;;;;;;74.97;31.47;;;;;;;11.07;88.25;98637.75;5057543;28;20729;-75
2021/12/06 09:39:08;;;;;;;81.20;36.03;;;;;;;11.03;88.62;98625.13;5071461;28;20255;-75
2021/12/06 09:41:35;;;;;;;67.07;30.77;;;;;;;11.14;89.12;98621.72;5071356;28;20192;-74
2021/12/06 09:44:04;;;;;;;70.20;30.07;;;;;;;11.27;88.12;98629.56;5071111;28;20197;-73
2021/12/06 09:46:36;;;;;;;75.47;31.80;;;;;;;11.34;87.32;98632.97;5068473;28;20645;-73
2021/12/06 09:49:07;;;;;;;78.57;31.23;;;;;;;11.17;88.47;98625.78;5064841;28;20232;-74
2021/12/06 09:51:34;;;;;;;74.07;31.10;;;;;;;11.24;88.98;98624.72;5069422;28;20231;-73
2021/12/06 09:54:02;;;;;;;75.63;33.30;;;;;;;11.17;88.67;98631.09;5069860;28;20225;-73
2021/12/06 09:56:32;;;;;;;84.37;35.37;;;;;;;11.13;89.11;98620.13;5070611;28;20193;-70
2021/12/06 09:59:02;;;;;;;73.43;33.40;;;;;;;11.18;89.00;98612.28;5070643;28;20181;-73
2021/12/06 10:01:37;;;;;;;80.83;32.90;;;;;;;11.38;88.61;98601.41;5070166;28;20189;-71
2021/12/06 10:04:07;;;;;;;70.53;32.33;;;;;;;11.42;87.92;98579.50;5069866;28;20193;-74
2021/12/06 10:06:34;;;;;;;72.77;31.27;;;;;;;11.52;88.13;98574.47;5070158;28;20201;-74
2021/12/06 10:09:05;;;;;;;87.63;32.97;;;;;;;11.55;87.10;98599.81;5070927;28;20193;-72
2021/12/06 10:11:32;;;;;;;89.13;33.90;;;;;;;11.47;87.72;98600.91;5074533;28;20189;-74
2021/12/06 10:13:59;;;;;;;79.83;32.60;;;;;;;11.58;88.50;98578.88;5074608;28;20295;-76
2021/12/06 10:16:26;;;;;;;80.70;32.87;;;;;;;11.71;87.41;98569.97;5074284;28;20658;-75
2021/12/06 10:18:55;;;;;;;64.97;30.37;;;;;;;11.72;87.11;98572.38;5074317;28;20194;-76
2021/12/06 10:21:23;;;;;;;77.50;33.77;;;;;;;11.90;87.27;98590.97;5073928;28;20627;-71
2021/12/06 10:23:51;;;;;;;69.13;34.77;;;;;;;11.95;85.79;98567.13;5074391;28;20199;-74
2021/12/06 10:26:23;;;;;;;58.93;26.37;;;;;;;11.88;86.50;98571.72;5074281;28;20202;-75
2021/12/06 10:28:50;;;;;;;58.60;28.30;;;;;;;12.01;86.43;98558.22;5064476;28;20199;-75
2021/12/06 10:31:16;;;;;;;49.20;25.20;;;;;;;12.13;85.58;98559.06;5054231;28;20252;-76
2021/12/06 10:33:46;;;;;;;47.67;26.17;;;;;;;12.09;85.37;98552.56;5054206;28;20217;-76
2021/12/06 10:36:18;;;;;;;59.00;28.53;;;;;;;12.24;85.01;98550.31;5055427;28;20187;-74
2021/12/06 10:38:51;;;;;;;57.27;28.63;;;;;;;12.37;84.04;98557.28;5074639;28;20255;-75
2021/12/06 10:41:20;;;;;;;60.87;28.87;;;;;;;12.57;83.46;98549.78;5074495;28;20187;-77
2021/12/06 10:43:53;;;;;;;68.03;33.80;;;;;;;12.72;82.64;98552.75;5073762;28;20194;-75
2021/12/06 10:46:20;;;;;;;61.60;28.63;;;;;;;12.74;82.36;98572.78;5074351;28;20192;-75
2021/12/06 10:48:48;;;;;;;53.13;28.67;;;;;;;12.53;82.88;98562.72;5055285;28;20256;-75
2021/12/06 10:51:19;;;;;;;55.57;28.33;;;;;;;12.52;83.27;98550.44;5053519;28;20278;-75
2021/12/06 10:53:51;;;;;;;60.33;30.53;;;;;;;12.65;83.54;98560.88;5052935;28;20188;-74
2021/12/06 10:56:24;;;;;;;53.37;26.73;;;;;;;12.72;82.04;98548.25;5051990;28;20571;-73
2021/12/06 10:58:55;;;;;;;59.40;29.27;;;;;;;12.82;82.31;98537.81;5051859;28;20188;-75
2021/12/06 11:01:24;;;;;;;59.60;28.93;;;;;;;12.94;81.97;98529.81;5051477;28;20193;-74
2021/12/06 11:03:53;;;;;;;61.53;29.67;;;;;;;13.01;81.28;98526.00;5051816;28;20196;-74
2021/12/06 11:06:25;;;;;;;63.87;31.90;;;;;;;13.02;81.10;98527.63;5051900;28;20192;-75
2021/12/06 11:08:55;;;;;;;69.53;29.57;;;;;;;13.05;81.30;98524.50;5051719;28;20192;-75
2021/12/06 11:11:27;;;;;;;54.93;29.27;;;;;;;13.09;80.92;98517.66;5052386;28;20646;-75
2021/12/06 11:13:56;;;;;;;68.63;31.37;;;;;;;13.08;80.16;98505.38;5053145;28;20185;-74
2021/12/06 11:16:25;;;;;;;59.97;30.33;;;;;;;13.04;80.63;98509.53;5053143;28;20620;-75
2021/12/06 11:18:55;;;;;;;57.63;29.60;;;;;;;13.09;80.45;98509.66;5053158;28;20199;-75
2021/12/06 11:21:27;;;;;;;55.17;27.87;;;;;;;13.05;80.15;98507.66;5053639;28;20196;-75
2021/12/06 11:24:10;;;;;;;57.57;28.10;;;;;;;13.02;80.73;98503.63;5053516;28;20185;-75
2021/12/06 11:26:41;;;;;;;52.90;27.27;;;;;;;13.08;80.98;98499.22;5052934;28;20227;-75
2021/12/06 11:29:12;;;;;;;56.93;29.67;;;;;;;13.11;81.29;98499.53;5065056;28;20708;-76
2021/12/06 11:31:41;;;;;;;62.40;33.20;;;;;;;13.24;81.74;98491.25;5071201;28;20279;-76
2021/12/06 11:34:09;;;;;;;62.80;31.37;;;;;;;13.20;80.02;98481.31;5071848;28;20702;-74